^^
No Wait Weather (KNEBELLE1) Station Historical Data
Daily Summary for May 14, 2019 Units:  English    Metric   Both
Daily Weekly Monthly Yearly Custom
  High: Low: Average:
Temperature: 81.8 °F 55.7 °F 67.5 °F
Dew Point: 60.25 °F 48.99 °F 54.6 °F
Humidity: 92% 35% 66%
Wind Speed: 10mph 0mph 0.3mph
Wind Gust: 11mph - -
Wind- - SW
Pressure: 29.76 in 29.65 in -
Precipitation: 0.03 in    
Historical Graphs
 
 
Tabular Data for May 14, 2019
Time Temperature Dew Point Pressure Wind Wind Speed Wind Gust Humidity Rainfall Rate (Hourly) solar
00:04 59.6 °F 50.93 °F 29.73 in Calm     73% 0 in WeatherCatV3.04B91 W/m2
00:09 59.5 °F 50.84 °F 29.73 in Calm     73% 0 in WeatherCatV3.04B91 W/m2
00:14 59.5 °F 51.2 °F 29.72 in Calm     74% 0 in WeatherCatV3.04B91 W/m2
00:19 59.3 °F 51.01 °F 29.72 in Calm     74% 0 in WeatherCatV3.04B91 W/m2
00:24 59.3 °F 51.37 °F 29.72 in Calm     75% 0 in WeatherCatV3.04B91 W/m2
00:29 59.2 °F 51.28 °F 29.73 in Calm     75% 0 in WeatherCatV3.04B91 W/m2
00:34 59 °F 51.08 °F 29.73 in Calm     75% 0 in WeatherCatV3.04B91 W/m2
00:39 59 °F 51.08 °F 29.73 in Calm   1 mph 75% 0 in WeatherCatV3.04B91 W/m2
00:44 58.9 °F 50.99 °F 29.72 in Calm     75% 0 in WeatherCatV3.04B91 W/m2
00:49 58.9 °F 50.99 °F 29.72 in Calm     75% 0 in WeatherCatV3.04B91 W/m2
00:54 58.9 °F 50.99 °F 29.72 in Calm     75% 0 in WeatherCatV3.04B91 W/m2
00:59 58.9 °F 50.99 °F 29.73 in Calm     75% 0 in WeatherCatV3.04B91 W/m2
01:04 58.9 °F 50.99 °F 29.73 in Calm     75% 0 in WeatherCatV3.04B91 W/m2
01:09 58.9 °F 50.99 °F 29.73 in Calm     75% 0 in WeatherCatV3.04B91 W/m2
01:14 58.9 °F 50.99 °F 29.73 in Calm     75% 0 in WeatherCatV3.04B91 W/m2
01:19 58.9 °F 50.99 °F 29.73 in Calm     75% 0 in WeatherCatV3.04B91 W/m2
01:24 58.9 °F 51.35 °F 29.73 in Calm     76% 0 in WeatherCatV3.04B91 W/m2
01:29 58.9 °F 51.35 °F 29.73 in Calm     76% 0 in WeatherCatV3.04B91 W/m2
01:34 59 °F 51.44 °F 29.73 in Calm   3 mph 76% 0 in WeatherCatV3.04B91 W/m2
01:39 59 °F 51.44 °F 29.73 in Calm     76% 0 in WeatherCatV3.04B91 W/m2
01:44 59 °F 51.44 °F 29.73 in Calm     76% 0 in WeatherCatV3.04B91 W/m2
01:49 59.2 °F 51.64 °F 29.73 in Calm   7 mph 76% 0 in WeatherCatV3.04B91 W/m2
01:54 59.2 °F 51.99 °F 29.73 in Calm     77% 0 in WeatherCatV3.04B91 W/m2
01:59 59.2 °F 51.99 °F 29.73 in Calm     77% 0 in WeatherCatV3.04B91 W/m2
02:04 59.2 °F 51.99 °F 29.73 in Calm   2 mph 77% 0 in WeatherCatV3.04B91 W/m2
02:09 59.2 °F 51.99 °F 29.73 in Calm     77% 0 in WeatherCatV3.04B91 W/m2
02:14 59.2 °F 51.99 °F 29.72 in Calm     77% 0 in WeatherCatV3.04B91 W/m2
02:19 59.2 °F 52.34 °F 29.72 in Calm   3 mph 78% 0 in WeatherCatV3.04B91 W/m2
02:24 59.2 °F 52.69 °F 29.72 in Calm   2 mph 79% 0 in WeatherCatV3.04B91 W/m2
02:29 59 °F 52.49 °F 29.71 in Calm   4 mph 79% 0 in WeatherCatV3.04B91 W/m2
02:34 58.9 °F 52.74 °F 29.71 in Calm   3 mph 80% 0 in WeatherCatV3.04B91 W/m2
02:39 58.9 °F 52.74 °F 29.71 in Calm     80% 0 in WeatherCatV3.04B91 W/m2
02:44 58.9 °F 52.74 °F 29.72 in Calm   4 mph 80% 0 in WeatherCatV3.04B91 W/m2
02:49 58.9 °F 52.74 °F 29.72 in SW 1 mph 1 mph 80% 0 in WeatherCatV3.04B91 W/m2
02:54 58.9 °F 52.74 °F 29.72 in Calm     80% 0 in WeatherCatV3.04B91 W/m2
02:59 58.9 °F 52.4 °F 29.72 in Calm     79% 0 in WeatherCatV3.04B91 W/m2
03:04 58.9 °F 52.4 °F 29.72 in Calm   2 mph 79% 0 in WeatherCatV3.04B91 W/m2
03:09 58.9 °F 52.4 °F 29.72 in Calm   1 mph 79% 0 in WeatherCatV3.04B91 W/m2
03:14 59 °F 52.15 °F 29.70 in Calm   2 mph 78% 0 in WeatherCatV3.04B91 W/m2
03:19 59 °F 51.8 °F 29.70 in WSW 6 mph 10 mph 77% 0 in WeatherCatV3.04B91 W/m2
03:24 59.2 °F 51.64 °F 29.70 in Calm     76% 0 in WeatherCatV3.04B91 W/m2
03:29 59.3 °F 51.73 °F 29.72 in Calm   1 mph 76% 0 in WeatherCatV3.04B91 W/m2
03:34 59.3 °F 51.73 °F 29.72 in SW 4 mph 5 mph 76% 0 in WeatherCatV3.04B91 W/m2
03:39 59.3 °F 52.09 °F 29.72 in Calm   6 mph 77% 0 in WeatherCatV3.04B91 W/m2
03:44 59.2 °F 52.34 °F 29.76 in Calm     78% 0 in WeatherCatV3.04B91 W/m2
03:49 58.9 °F 52.4 °F 29.76 in South 4 mph 4 mph 79% 0 in WeatherCatV3.04B91 W/m2
03:54 58.6 °F 52.78 °F 29.76 in Calm     81% 0 in WeatherCatV3.04B91 W/m2
03:59 58 °F 52.53 °F 29.72 in SSW 1 mph 1 mph 82% 0 in WeatherCatV3.04B91 W/m2
04:04 57.5 °F 52.7 °F 29.72 in Calm   11 mph 84% 0.07 in WeatherCatV3.04B91 W/m2
04:09 56.9 °F 52.75 °F 29.72 in Calm     86% 0.1 in WeatherCatV3.04B91 W/m2
04:14 56.6 °F 52.77 °F 29.71 in SW 2 mph 3 mph 87% 0.07 in WeatherCatV3.04B91 W/m2
04:19 56.3 °F 52.79 °F 29.71 in Calm   2 mph 88% 0.04 in WeatherCatV3.04B91 W/m2
04:24 56.2 °F 52.69 °F 29.71 in Calm   5 mph 88% 0 in WeatherCatV3.04B91 W/m2
04:29 56 °F 52.8 °F 29.72 in Calm   9 mph 89% 0 in WeatherCatV3.04B91 W/m2
04:34 56 °F 52.8 °F 29.72 in Calm   5 mph 89% 0 in WeatherCatV3.04B91 W/m2
04:39 55.9 °F 53.01 °F 29.72 in Calm   3 mph 90% 0 in WeatherCatV3.04B91 W/m2
04:44 55.9 °F 53.01 °F 29.72 in SW 2 mph 4 mph 90% 0 in WeatherCatV3.04B91 W/m2
04:49 55.9 °F 53.01 °F 29.72 in Calm     90% 0 in WeatherCatV3.04B91 W/m2
04:54 55.9 °F 53.31 °F 29.72 in SW 2 mph 4 mph 91% 0 in WeatherCatV3.04B91 W/m2
04:59 55.9 °F 53.31 °F 29.71 in Calm     91% 0 in WeatherCatV3.04B91 W/m2
05:04 55.9 °F 53.31 °F 29.71 in Calm     91% 0 in WeatherCatV3.04B91 W/m2
05:09 55.7 °F 53.11 °F 29.71 in Calm     91% 0 in WeatherCatV3.04B91 W/m2
05:14 55.7 °F 53.11 °F 29.70 in Calm     91% 0 in WeatherCatV3.04B91 W/m2
05:19 55.7 °F 53.11 °F 29.70 in Calm   5 mph 91% 0 in WeatherCatV3.04B91 W/m2
05:24 55.7 °F 53.11 °F 29.70 in Calm     91% 0 in WeatherCatV3.04B91 W/m2
05:29 55.7 °F 53.11 °F 29.69 in Calm   1 mph 91% 0 in WeatherCatV3.04B91 W/m2
05:34 55.7 °F 53.11 °F 29.69 in Calm   3 mph 91% 0 in WeatherCatV3.04B91 W/m2
05:39 55.7 °F 53.11 °F 29.69 in Calm     91% 0 in WeatherCatV3.04B91 W/m2
05:44 55.7 °F 53.11 °F 29.71 in Calm     91% 0 in WeatherCatV3.04B91 W/m2
05:49 55.7 °F 53.11 °F 29.71 in Calm     91% 0 in WeatherCatV3.04B91 W/m2
05:54 55.9 °F 53.31 °F 29.71 in Calm     91% 0 in WeatherCatV3.04B91 W/m2
05:59 55.9 °F 53.31 °F 29.72 in Calm     91% 0 in WeatherCatV3.04B91 W/m2
06:04 55.9 °F 53.31 °F 29.72 in Calm     91% 0 in WeatherCatV3.04B91 W/m2
06:09 55.9 °F 53.31 °F 29.72 in WSW 2 mph 2 mph 91% 0 in WeatherCatV3.04B91 W/m2
06:14 55.9 °F 53.31 °F 29.70 in Calm   2 mph 91% 0 in WeatherCatV3.04B91 W/m2
06:19 55.7 °F 53.11 °F 29.70 in Calm     91% 0 in WeatherCatV3.04B91 W/m2
06:24 55.7 °F 53.11 °F 29.70 in WSW 4 mph 5 mph 91% 0 in WeatherCatV3.04B91 W/m2
06:29 55.7 °F 53.11 °F 29.70 in Calm     91% 0 in WeatherCatV3.04B91 W/m2
06:34 55.7 °F 53.11 °F 29.70 in Calm   3 mph 91% 0 in WeatherCatV3.04B91 W/m2
06:39 55.9 °F 53.31 °F 29.70 in Calm   4 mph 91% 0 in WeatherCatV3.04B91 W/m2
06:44 55.9 °F 53.31 °F 29.72 in Calm   2 mph 91% 0 in WeatherCatV3.04B91 W/m2
06:49 55.9 °F 53.31 °F 29.72 in Calm     91% 0 in WeatherCatV3.04B91 W/m2
06:54 55.9 °F 53.31 °F 29.72 in Calm     91% 0 in WeatherCatV3.04B91 W/m2
06:59 55.9 °F 53.31 °F 29.71 in Calm     91% 0 in WeatherCatV3.04B91 W/m2
07:04 55.7 °F 53.11 °F 29.71 in Calm     91% 0 in WeatherCatV3.04B91 W/m2
07:09 55.7 °F 53.11 °F 29.71 in Calm     91% 0 in WeatherCatV3.04B91 W/m2
07:14 55.7 °F 53.11 °F 29.73 in Calm     91% 0 in WeatherCatV3.04B91 W/m2
07:19 55.7 °F 53.11 °F 29.73 in Calm     91% 0 in WeatherCatV3.04B91 W/m2
07:24 55.7 °F 53.11 °F 29.73 in Calm     91% 0 in WeatherCatV3.04B91 W/m2
07:29 55.9 °F 53.31 °F 29.72 in Calm     91% 0 in WeatherCatV3.04B91 W/m2
07:34 56 °F 53.71 °F 29.72 in Calm     92% 0 in WeatherCatV3.04B91 W/m2
07:39 56.3 °F 54 °F 29.72 in Calm   2 mph 92% 0 in WeatherCatV3.04B91 W/m2
07:44 56.5 °F 54.2 °F 29.71 in Calm   3 mph 92% 0 in WeatherCatV3.04B91 W/m2
07:49 56.5 °F 54.2 °F 29.71 in Calm     92% 0 in WeatherCatV3.04B91 W/m2
07:54 56.7 °F 54.4 °F 29.71 in Calm   1 mph 92% 0 in WeatherCatV3.04B91 W/m2
07:59 57 °F 54.7 °F 29.72 in Calm     92% 0 in WeatherCatV3.04B91 W/m2
08:04 57 °F 54.4 °F 29.72 in Calm     91% 0 in WeatherCatV3.04B91 W/m2
08:09 57 °F 54.09 °F 29.72 in Calm     90% 0 in WeatherCatV3.04B91 W/m2
08:13 57.2 °F 54.29 °F 29.72 in Calm   3 mph 90% 0 in WeatherCatV3.04B91 W/m2
08:19 57.5 °F 54.59 °F 29.73 in Calm   2 mph 90% 0 in WeatherCatV3.04B91 W/m2
08:24 58.1 °F 54.87 °F 29.73 in Calm   4 mph 89% 0 in WeatherCatV3.04B91 W/m2
08:29 58.4 °F 54.86 °F 29.73 in Calm     88% 0 in WeatherCatV3.04B91 W/m2
08:34 58.7 °F 55.15 °F 29.73 in Calm   7 mph 88% 0 in WeatherCatV3.04B91 W/m2
08:39 59.3 °F 55.43 °F 29.73 in SW 1 mph 4 mph 87% 0 in WeatherCatV3.04B91 W/m2
08:44 59.9 °F 55.38 °F 29.72 in Calm   2 mph 85% 0 in WeatherCatV3.04B91 W/m2
08:49 60.4 °F 55.21 °F 29.72 in SSW 2 mph 6 mph 83% 0 in WeatherCatV3.04B91 W/m2
08:54 61 °F 55.12 °F 29.72 in Calm     81% 0 in WeatherCatV3.04B91 W/m2
08:59 61.3 °F 54.73 °F 29.72 in SW 3 mph 6 mph 79% 0 in WeatherCatV3.04B91 W/m2
09:04 61.5 °F 54.22 °F 29.72 in SW 3 mph 6 mph 77% 0 in WeatherCatV3.04B91 W/m2
09:09 61.8 °F 53.79 °F 29.72 in SW 1 mph 7 mph 75% 0 in WeatherCatV3.04B91 W/m2
09:14 61.8 °F 53.05 °F 29.72 in WSW 6 mph 6 mph 73% 0 in WeatherCatV3.04B91 W/m2
09:19 61.8 °F 53.42 °F 29.72 in Calm   6 mph 74% 0 in WeatherCatV3.04B91 W/m2
09:24 61.6 °F 52.48 °F 29.72 in WSW 2 mph 6 mph 72% 0 in WeatherCatV3.04B91 W/m2
09:29 61.6 °F 52.86 °F 29.73 in Calm   5 mph 73% 0 in WeatherCatV3.04B91 W/m2
09:34 61.6 °F 52.86 °F 29.73 in SW 1 mph 11 mph 73% 0 in WeatherCatV3.04B91 W/m2
09:39 61.6 °F 52.48 °F 29.73 in SSW 6 mph 7 mph 72% 0 in WeatherCatV3.04B91 W/m2
09:44 62 °F 52.86 °F 29.73 in SSW 10 mph 10 mph 72% 0 in WeatherCatV3.04B91 W/m2
09:49 62.3 °F 53.15 °F 29.73 in Calm   5 mph 72% 0 in WeatherCatV3.04B91 W/m2
09:54 62.4 °F 53.25 °F 29.73 in Calm   3 mph 72% 0 in WeatherCatV3.04B91 W/m2
09:59 62.7 °F 53.54 °F 29.72 in Calm   3 mph 72% 0 in WeatherCatV3.04B91 W/m2
10:04 62.9 °F 53.73 °F 29.72 in Calm   4 mph 72% 0 in WeatherCatV3.04B91 W/m2
10:09 62.7 °F 53.16 °F 29.72 in Calm   4 mph 71% 0 in WeatherCatV3.04B91 W/m2
10:14 62.9 °F 53.73 °F 29.73 in SSW 2 mph 3 mph 72% 0 in WeatherCatV3.04B91 W/m2
10:19 63.1 °F 53.92 °F 29.73 in Calm   2 mph 72% 0 in WeatherCatV3.04B91 W/m2
10:24 63.4 °F 54.21 °F 29.73 in Calm   2 mph 72% 0 in WeatherCatV3.04B91 W/m2
10:29 63.7 °F 54.5 °F 29.72 in SSW 2 mph 3 mph 72% 0 in WeatherCatV3.04B91 W/m2
10:34 63.9 °F 54.69 °F 29.72 in Calm   3 mph 72% 0 in WeatherCatV3.04B91 W/m2
10:39 64 °F 55.16 °F 29.72 in Calm     73% 0 in WeatherCatV3.04B91 W/m2
10:44 64.3 °F 55.07 °F 29.72 in Calm   6 mph 72% 0 in WeatherCatV3.04B91 W/m2
10:49 64.7 °F 55.84 °F 29.72 in Calm   2 mph 73% 0 in WeatherCatV3.04B91 W/m2
10:54 65 °F 56.13 °F 29.72 in SW 2 mph 6 mph 73% 0 in WeatherCatV3.04B91 W/m2
10:59 65.3 °F 56.03 °F 29.72 in Calm   3 mph 72% 0 in WeatherCatV3.04B91 W/m2
11:04 65.5 °F 56.23 °F 29.72 in Calm   3 mph 72% 0 in WeatherCatV3.04B91 W/m2
11:09 65.8 °F 56.13 °F 29.72 in Calm   6 mph 71% 0 in WeatherCatV3.04B91 W/m2
11:14 66 °F 56.71 °F 29.72 in Calm   7 mph 72% 0 in WeatherCatV3.04B91 W/m2
11:19 66.4 °F 57.09 °F 29.72 in Calm   1 mph 72% 0 in WeatherCatV3.04B91 W/m2
11:24 67.1 °F 57.76 °F 29.72 in Calm   1 mph 72% 0 in WeatherCatV3.04B91 W/m2
11:29 67.4 °F 57.66 °F 29.72 in Calm   3 mph 71% 0 in WeatherCatV3.04B91 W/m2
11:34 67.9 °F 57.74 °F 29.72 in SW 2 mph 4 mph 70% 0 in WeatherCatV3.04B91 W/m2
11:39 68.3 °F 57.73 °F 29.72 in Calm   1 mph 69% 0 in WeatherCatV3.04B91 W/m2
11:44 68.4 °F 57.42 °F 29.72 in Calm   4 mph 68% 0 in WeatherCatV3.04B91 W/m2
11:49 68.6 °F 57.19 °F 29.72 in Calm   3 mph 67% 0 in WeatherCatV3.04B91 W/m2
11:54 68.8 °F 57.38 °F 29.72 in Calm   4 mph 67% 0 in WeatherCatV3.04B91 W/m2
11:59 69.1 °F 58.08 °F 29.72 in Calm   3 mph 68% 0 in WeatherCatV3.04B91 W/m2
12:04 69.4 °F 57.95 °F 29.72 in Calm     67% 0 in WeatherCatV3.04B91 W/m2
12:09 69.8 °F 58.34 °F 29.72 in Calm   5 mph 67% 0 in WeatherCatV3.04B91 W/m2
12:14 70.3 °F 58.81 °F 29.72 in Calm   2 mph 67% 0 in WeatherCatV3.04B91 W/m2
12:19 70.6 °F 58.68 °F 29.72 in Calm   2 mph 66% 0 in WeatherCatV3.04B91 W/m2
12:24 71.1 °F 58.72 °F 29.72 in Calm     65% 0 in WeatherCatV3.04B91 W/m2
12:29 71.3 °F 58.48 °F 29.71 in Calm     64% 0 in WeatherCatV3.04B91 W/m2
12:34 71.6 °F 59.2 °F 29.71 in Calm     65% 0 in WeatherCatV3.04B91 W/m2
12:39 72.1 °F 59.67 °F 29.71 in Calm     65% 0 in WeatherCatV3.04B91 W/m2
12:44 72.5 °F 60.05 °F 29.70 in Calm     65% 0 in WeatherCatV3.04B91 W/m2
12:49 73 °F 59.2 °F 29.70 in Calm     62% 0 in WeatherCatV3.04B91 W/m2
12:54 73.3 °F 59.02 °F 29.70 in Calm   4 mph 61% 0 in WeatherCatV3.04B91 W/m2
12:59 73.5 °F 59.21 °F 29.70 in Calm   1 mph 61% 0 in WeatherCatV3.04B91 W/m2
13:04 73.7 °F 59.85 °F 29.70 in Calm     62% 0 in WeatherCatV3.04B91 W/m2
13:09 74.2 °F 59.87 °F 29.70 in Calm   2 mph 61% 0 in WeatherCatV3.04B91 W/m2
13:14 74.6 °F 60.24 °F 29.69 in Calm     61% 0 in WeatherCatV3.04B91 W/m2
13:19 74.7 °F 59.87 °F 29.69 in Calm     60% 0 in WeatherCatV3.04B91 W/m2
13:24 75.1 °F 60.25 °F 29.69 in Calm     60% 0 in WeatherCatV3.04B91 W/m2
13:29 75.4 °F 59.09 °F 29.69 in Calm     57% 0 in WeatherCatV3.04B91 W/m2
13:34 75.8 °F 59.46 °F 29.69 in Calm   3 mph 57% 0 in WeatherCatV3.04B91 W/m2
13:39 76 °F 59.65 °F 29.69 in Calm   3 mph 57% 0 in WeatherCatV3.04B91 W/m2
13:44 76.3 °F 58.92 °F 29.68 in Calm   4 mph 55% 0 in WeatherCatV3.04B91 W/m2
13:49 76.7 °F 59.3 °F 29.68 in Calm     55% 0 in WeatherCatV3.04B91 W/m2
13:54 77 °F 59.06 °F 29.68 in Calm     54% 0 in WeatherCatV3.04B91 W/m2
13:59 77 °F 59.57 °F 29.68 in Calm   2 mph 55% 0 in WeatherCatV3.04B91 W/m2
14:04 77.6 °F 58.02 °F 29.68 in Calm     51% 0 in WeatherCatV3.04B91 W/m2
14:09 77.7 °F 57.56 °F 29.68 in Calm     50% 0 in WeatherCatV3.04B91 W/m2
14:14 77.2 °F 57.1 °F 29.68 in Calm   2 mph 50% 0 in WeatherCatV3.04B91 W/m2
14:19 77.7 °F 59.71 °F 29.68 in Calm     54% 0 in WeatherCatV3.04B91 W/m2
14:24 78.5 °F 58.29 °F 29.68 in Calm     50% 0 in WeatherCatV3.04B91 W/m2
14:29 78.5 °F 57.73 °F 29.68 in Calm   2 mph 49% 0 in WeatherCatV3.04B91 W/m2
14:34 79.4 °F 59.11 °F 29.68 in Calm     50% 0 in WeatherCatV3.04B91 W/m2
14:39 79.6 °F 58.16 °F 29.68 in Calm   1 mph 48% 0 in WeatherCatV3.04B91 W/m2
14:44 79.8 °F 57.15 °F 29.67 in Calm   7 mph 46% 0 in WeatherCatV3.04B91 W/m2
14:49 79.6 °F 58.16 °F 29.67 in Calm     48% 0 in WeatherCatV3.04B91 W/m2
14:54 79.4 °F 57.97 °F 29.67 in Calm   2 mph 48% 0 in WeatherCatV3.04B91 W/m2
14:59 79 °F 58.75 °F 29.67 in Calm     50% 0 in WeatherCatV3.04B91 W/m2
15:04 79.6 °F 58.16 °F 29.67 in WNW 1 mph 4 mph 48% 0 in WeatherCatV3.04B91 W/m2
15:09 80.3 °F 59.94 °F 29.67 in Calm     50% 0 in WeatherCatV3.04B91 W/m2
15:14 80.5 °F 58.39 °F 29.67 in Calm     47% 0 in WeatherCatV3.04B91 W/m2
15:19 80.5 °F 57.18 °F 29.67 in Calm     45% 0 in WeatherCatV3.04B91 W/m2
15:24 80.1 °F 56.81 °F 29.67 in Calm     45% 0 in WeatherCatV3.04B91 W/m2
15:29 80.3 °F 58.79 °F 29.66 in Calm   1 mph 48% 0 in WeatherCatV3.04B91 W/m2
15:34 80.9 °F 58.15 °F 29.66 in Calm     46% 0 in WeatherCatV3.04B91 W/m2
15:39 81.2 °F 57.81 °F 29.66 in Calm     45% 0 in WeatherCatV3.04B91 W/m2
15:44 81.2 °F 56.55 °F 29.66 in Calm     43% 0 in WeatherCatV3.04B91 W/m2
15:49 81.2 °F 55.9 °F 29.66 in Calm     42% 0 in WeatherCatV3.04B91 W/m2
15:54 81.2 °F 56.55 °F 29.66 in Calm   1 mph 43% 0 in WeatherCatV3.04B91 W/m2
15:59 81.4 °F 56.08 °F 29.66 in Calm   2 mph 42% 0 in WeatherCatV3.04B91 W/m2
16:04 81.8 °F 57.09 °F 29.66 in Calm     43% 0 in WeatherCatV3.04B91 W/m2
16:09 81.6 °F 53.5 °F 29.66 in Calm   2 mph 38% 0 in WeatherCatV3.04B91 W/m2
16:14 81.4 °F 54.73 °F 29.66 in Calm     40% 0 in WeatherCatV3.04B91 W/m2
16:19 81.1 °F 55.14 °F 29.66 in Calm     41% 0 in WeatherCatV3.04B91 W/m2
16:24 81.2 °F 57.81 °F 29.66 in Calm     45% 0 in WeatherCatV3.04B91 W/m2
16:29 81.6 °F 56.91 °F 29.65 in Calm     43% 0 in WeatherCatV3.04B91 W/m2
16:34 81.2 °F 57.18 °F 29.65 in Calm   5 mph 44% 0 in WeatherCatV3.04B91 W/m2
16:39 80.9 °F 57.54 °F 29.65 in Calm   2 mph 45% 0 in WeatherCatV3.04B91 W/m2
16:43 80.9 °F 58.15 °F 29.65 in Calm     46% 0 in WeatherCatV3.04B91 W/m2
16:49 80.5 °F 58.39 °F 29.66 in Calm     47% 0 in WeatherCatV3.04B91 W/m2
16:54 80.5 °F 58.39 °F 29.66 in Calm     47% 0 in WeatherCatV3.04B91 W/m2
16:59 80.7 °F 58.57 °F 29.65 in Calm     47% 0 in WeatherCatV3.04B91 W/m2
17:04 80.7 °F 59.16 °F 29.65 in Calm     48% 0 in WeatherCatV3.04B91 W/m2
17:09 80.5 °F 58.98 °F 29.65 in Calm     48% 0 in WeatherCatV3.04B91 W/m2
17:14 80.3 °F 57 °F 29.66 in Calm     45% 0 in WeatherCatV3.04B91 W/m2
17:19 80.3 °F 57.61 °F 29.66 in Calm     46% 0 in WeatherCatV3.04B91 W/m2
17:24 80.3 °F 57.61 °F 29.66 in Calm     46% 0 in WeatherCatV3.04B91 W/m2
17:29 79.9 °F 56.63 °F 29.65 in Calm     45% 0 in WeatherCatV3.04B91 W/m2
17:34 79.9 °F 57.24 °F 29.65 in Calm     46% 0 in WeatherCatV3.04B91 W/m2
17:39 79.9 °F 57.24 °F 29.65 in Calm     46% 0 in WeatherCatV3.04B91 W/m2
17:44 80.1 °F 57.43 °F 29.66 in Calm     46% 0 in WeatherCatV3.04B91 W/m2
17:49 80.1 °F 56.81 °F 29.66 in Calm     45% 0 in WeatherCatV3.04B91 W/m2
17:54 80.1 °F 56.81 °F 29.66 in Calm     45% 0 in WeatherCatV3.04B91 W/m2
17:59 80.1 °F 56.81 °F 29.66 in Calm   1 mph 45% 0 in WeatherCatV3.04B91 W/m2
18:04 80.1 °F 56.81 °F 29.66 in Calm     45% 0 in WeatherCatV3.04B91 W/m2
18:09 80.1 °F 56.81 °F 29.66 in Calm     45% 0 in WeatherCatV3.04B91 W/m2
18:14 80.1 °F 56.81 °F 29.66 in Calm     45% 0 in WeatherCatV3.04B91 W/m2
18:19 79.9 °F 57.24 °F 29.66 in Calm     46% 0 in WeatherCatV3.04B91 W/m2
18:24 79.9 °F 56.63 °F 29.66 in Calm     45% 0 in WeatherCatV3.04B91 W/m2
18:29 79.8 °F 55.29 °F 29.66 in Calm   1 mph 43% 0 in WeatherCatV3.04B91 W/m2
18:34 79.6 °F 55.74 °F 29.66 in Calm     44% 0 in WeatherCatV3.04B91 W/m2
18:39 79.6 °F 56.36 °F 29.66 in Calm     45% 0 in WeatherCatV3.04B91 W/m2
18:43 79.6 °F 55.74 °F 29.66 in Calm     44% 0 in WeatherCatV3.04B91 W/m2
18:49 79.6 °F 56.36 °F 29.66 in Calm     45% 0 in WeatherCatV3.04B91 W/m2
18:54 79.6 °F 55.74 °F 29.66 in Calm     44% 0 in WeatherCatV3.04B91 W/m2
18:59 79.4 °F 54.28 °F 29.66 in Calm     42% 0 in WeatherCatV3.04B91 W/m2
19:04 79.4 °F 54.93 °F 29.66 in Calm     43% 0 in WeatherCatV3.04B91 W/m2
19:09 79.2 °F 53.44 °F 29.66 in Calm     41% 0 in WeatherCatV3.04B91 W/m2
19:14 79 °F 51.2 °F 29.66 in Calm     38% 0 in WeatherCatV3.04B91 W/m2
19:19 78.8 °F 49.57 °F 29.66 in Calm     36% 0 in WeatherCatV3.04B91 W/m2
19:24 79 °F 48.99 °F 29.66 in Calm     35% 0 in WeatherCatV3.04B91 W/m2
19:29 78.8 °F 49.57 °F 29.66 in Calm     36% 0 in WeatherCatV3.04B91 W/m2
19:34 78.8 °F 49.57 °F 29.66 in Calm     36% 0 in WeatherCatV3.04B91 W/m2
19:39 78.6 °F 50.13 °F 29.66 in Calm     37% 0 in WeatherCatV3.04B91 W/m2
19:44 78.3 °F 49.13 °F 29.66 in Calm     36% 0 in WeatherCatV3.04B91 W/m2
19:49 77.9 °F 50.22 °F 29.66 in Calm     38% 0 in WeatherCatV3.04B91 W/m2
19:54 77.6 °F 50.66 °F 29.66 in Calm     39% 0 in WeatherCatV3.04B91 W/m2
19:59 77.4 °F 49.78 °F 29.66 in Calm     38% 0 in WeatherCatV3.04B91 W/m2
20:04 77 °F 50.81 °F 29.66 in Calm     40% 0 in WeatherCatV3.04B91 W/m2
20:09 76.7 °F 49.86 °F 29.66 in Calm     39% 0 in WeatherCatV3.04B91 W/m2
20:14 76.5 °F 51.03 °F 29.66 in Calm     41% 0 in WeatherCatV3.04B91 W/m2
20:19 76 °F 51.23 °F 29.66 in Calm     42% 0 in WeatherCatV3.04B91 W/m2
20:24 75.6 °F 52.13 °F 29.66 in Calm     44% 0 in WeatherCatV3.04B91 W/m2
20:29 75.3 °F 51.86 °F 29.67 in Calm     44% 0 in WeatherCatV3.04B91 W/m2
20:34 74.9 °F 52.11 °F 29.67 in Calm     45% 0 in WeatherCatV3.04B91 W/m2
20:39 74.6 °F 52.43 °F 29.67 in Calm     46% 0 in WeatherCatV3.04B91 W/m2
20:44 74.2 °F 52.66 °F 29.67 in Calm     47% 0 in WeatherCatV3.04B91 W/m2
20:49 73.9 °F 52.96 °F 29.67 in Calm     48% 0 in WeatherCatV3.04B91 W/m2
20:54 73.5 °F 53.15 °F 29.67 in Calm     49% 0 in WeatherCatV3.04B91 W/m2
20:59 73 °F 52.69 °F 29.67 in Calm     49% 0 in WeatherCatV3.04B91 W/m2
21:04 72.7 °F 52.97 °F 29.67 in Calm     50% 0 in WeatherCatV3.04B91 W/m2
21:09 72.5 °F 53.86 °F 29.67 in Calm     52% 0 in WeatherCatV3.04B91 W/m2
21:14 72.1 °F 53.49 °F 29.68 in Calm     52% 0 in WeatherCatV3.04B91 W/m2
21:19 71.6 °F 53.55 °F 29.68 in Calm     53% 0 in WeatherCatV3.04B91 W/m2
21:24 71.3 °F 53.27 °F 29.68 in Calm     53% 0 in WeatherCatV3.04B91 W/m2
21:29 70.9 °F 53.41 °F 29.68 in Calm     54% 0 in WeatherCatV3.04B91 W/m2
21:34 70.8 °F 53.32 °F 29.68 in Calm     54% 0 in WeatherCatV3.04B91 W/m2
21:39 70.4 °F 53.45 °F 29.68 in Calm     55% 0 in WeatherCatV3.04B91 W/m2
21:43 70.4 °F 53.45 °F 29.68 in Calm     55% 0 in WeatherCatV3.04B91 W/m2
21:49 70.3 °F 53.36 °F 29.68 in Calm     55% 0 in WeatherCatV3.04B91 W/m2
21:54 70.3 °F 53.85 °F 29.68 in Calm     56% 0 in WeatherCatV3.04B91 W/m2
21:59 69.9 °F 53.48 °F 29.70 in Calm     56% 0 in WeatherCatV3.04B91 W/m2
22:04 69.8 °F 53.38 °F 29.70 in Calm     56% 0 in WeatherCatV3.04B91 W/m2
22:09 69.6 °F 53.68 °F 29.70 in Calm     57% 0 in WeatherCatV3.04B91 W/m2
22:14 69.4 °F 53.97 °F 29.70 in Calm     58% 0 in WeatherCatV3.04B91 W/m2
22:19 69.1 °F 54.16 °F 29.70 in Calm     59% 0 in WeatherCatV3.04B91 W/m2
22:24 69.1 °F 55.07 °F 29.70 in Calm     61% 0 in WeatherCatV3.04B91 W/m2
22:29 68.9 °F 54.88 °F 29.70 in Calm     61% 0 in WeatherCatV3.04B91 W/m2
22:34 68.8 °F 55.24 °F 29.70 in Calm     62% 0 in WeatherCatV3.04B91 W/m2
22:39 68.4 °F 54.86 °F 29.70 in Calm     62% 0 in WeatherCatV3.04B91 W/m2
22:44 68.3 °F 54.77 °F 29.70 in Calm     62% 0 in WeatherCatV3.04B91 W/m2
22:49 68.1 °F 55.45 °F 29.70 in Calm     64% 0 in WeatherCatV3.04B91 W/m2
22:54 67.9 °F 55.26 °F 29.70 in Calm     64% 0 in WeatherCatV3.04B91 W/m2
22:59 67.8 °F 55.6 °F 29.71 in Calm     65% 0 in WeatherCatV3.04B91 W/m2
23:04 67.6 °F 55.41 °F 29.71 in Calm     65% 0 in WeatherCatV3.04B91 W/m2
23:09 67.4 °F 55.64 °F 29.71 in Calm     66% 0 in WeatherCatV3.04B91 W/m2
23:14 67.3 °F 55.96 °F 29.70 in Calm     67% 0 in WeatherCatV3.04B91 W/m2
23:19 66.9 °F 55.99 °F 29.70 in Calm     68% 0 in WeatherCatV3.04B91 W/m2
23:24 66.6 °F 55.7 °F 29.70 in Calm     68% 0 in WeatherCatV3.04B91 W/m2
23:29 66.3 °F 55.82 °F 29.71 in Calm     69% 0 in WeatherCatV3.04B91 W/m2
23:34 66.1 °F 56.02 °F 29.71 in Calm   9 mph 70% 0 in WeatherCatV3.04B91 W/m2
23:39 66.3 °F 56.21 °F 29.71 in Calm     70% 0 in WeatherCatV3.04B91 W/m2
23:44 66.4 °F 55.91 °F 29.71 in Calm     69% 0 in WeatherCatV3.04B91 W/m2
23:49 66.4 °F 55.91 °F 29.71 in Calm     69% 0 in WeatherCatV3.04B91 W/m2
23:54 66.3 °F 55.82 °F 29.71 in Calm     69% 0 in WeatherCatV3.04B91 W/m2
23:59 66.3 °F 55.82 °F 29.71 in Calm     69% 0 in WeatherCatV3.04B91 W/m2
Bellevue, Nebraska, USA
Compliments of Weather Underground - 3.25 mb